createdAt,value
2022-11-02T00:00:32.039Z,14.62
2022-11-02T00:02:59.987Z,14.25
2022-11-02T00:05:28.093Z,14.37
2022-11-02T00:07:56.835Z,14.33
2022-11-02T00:10:25.732Z,14.31
2022-11-02T00:12:54.076Z,14.47
2022-11-02T00:15:25.487Z,14.47
2022-11-02T00:17:56.892Z,14.48
2022-11-02T00:20:26.220Z,14.36
2022-11-02T00:22:57.127Z,14.35
2022-11-02T00:25:26.500Z,14.10
2022-11-02T00:27:54.308Z,14.23
2022-11-02T00:30:23.449Z,14.25
2022-11-02T00:32:51.828Z,14.25
2022-11-02T00:35:19.586Z,14.26
2022-11-02T00:37:47.408Z,14.11
2022-11-02T00:40:15.147Z,13.96
2022-11-02T00:42:42.902Z,13.89
2022-11-02T00:45:11.144Z,13.67
2022-11-02T00:47:40.362Z,13.61
2022-11-02T00:50:09.116Z,13.61
2022-11-02T00:52:36.863Z,13.62
2022-11-02T00:55:04.887Z,13.60
2022-11-02T00:57:32.643Z,13.44
2022-11-02T01:00:00.360Z,13.47
2022-11-02T01:02:29.368Z,13.65
2022-11-02T01:04:58.576Z,13.76
2022-11-02T01:07:26.347Z,13.78
2022-11-02T01:09:54.087Z,13.75
2022-11-02T01:12:22.145Z,13.73
2022-11-02T01:14:50.753Z,13.71
2022-11-02T01:17:19.198Z,13.64
2022-11-02T01:19:49.444Z,13.59
2022-11-02T01:22:19.018Z,13.50
2022-11-02T01:24:46.724Z,13.23
2022-11-02T01:27:14.399Z,13.21
2022-11-02T01:29:42.128Z,13.28
2022-11-02T01:32:09.903Z,13.25
2022-11-02T01:34:37.580Z,13.26
2022-11-02T01:37:05.392Z,13.29
2022-11-02T01:39:34.502Z,13.41
2022-11-02T01:42:02.185Z,13.48
2022-11-02T01:44:32.095Z,13.49
2022-11-02T01:47:04.190Z,13.46
2022-11-02T01:49:34.646Z,13.42
2022-11-02T01:52:09.519Z,13.39
2022-11-02T01:54:43.577Z,13.37
2022-11-02T01:57:14.555Z,13.40
2022-11-02T01:59:46.434Z,13.28
2022-11-02T02:02:18.781Z,13.26
2022-11-02T02:04:51.856Z,13.27
2022-11-02T02:07:20.818Z,13.27
2022-11-02T02:09:51.393Z,13.28
2022-11-02T02:12:21.075Z,13.11
2022-11-02T02:14:48.974Z,13.16
2022-11-02T02:17:34.168Z,12.99
2022-11-02T02:20:06.339Z,12.99
2022-11-02T02:23:04.370Z,12.75
2022-11-02T02:26:09.531Z,12.80
2022-11-02T02:28:43.733Z,12.83
2022-11-02T02:31:17.116Z,12.98
2022-11-02T02:33:47.875Z,12.94
2022-11-02T02:36:25.532Z,12.91
2022-11-02T02:39:02.019Z,12.88
2022-11-02T02:41:39.155Z,12.89
2022-11-02T02:44:11.818Z,12.82
2022-11-02T02:46:46.606Z,12.81
2022-11-02T02:49:22.657Z,12.90
2022-11-02T02:51:51.838Z,13.04
2022-11-02T02:54:23.863Z,13.01
2022-11-02T02:56:55.863Z,12.75
2022-11-02T02:59:29.304Z,12.62
2022-11-02T03:01:57.733Z,12.75
2022-11-02T03:04:26.109Z,12.91
2022-11-02T03:06:58.303Z,12.94
2022-11-02T03:09:33.706Z,12.99
2022-11-02T03:12:14.080Z,12.88
2022-11-02T03:14:56.701Z,12.81
2022-11-02T03:17:33.901Z,12.72
2022-11-02T03:20:11.647Z,12.70
2022-11-02T03:22:49.899Z,12.74
2022-11-02T03:25:22.460Z,12.84
2022-11-02T03:27:56.187Z,12.84
2022-11-02T03:30:28.830Z,12.96
2022-11-02T03:33:03.592Z,12.93
2022-11-02T03:35:36.708Z,12.91
2022-11-02T03:38:09.071Z,12.83
2022-11-02T03:40:43.103Z,12.69
2022-11-02T03:43:11.952Z,12.60
2022-11-02T03:45:44.872Z,12.45
2022-11-02T03:48:15.466Z,12.37
2022-11-02T03:50:47.737Z,12.09
2022-11-02T03:53:22.624Z,11.96
2022-11-02T03:55:56.882Z,11.98
2022-11-02T03:58:24.677Z,11.89
2022-11-02T04:00:57.050Z,12.18
2022-11-02T04:03:25.879Z,12.19
2022-11-02T04:05:53.629Z,12.26
2022-11-02T04:08:30.638Z,12.07
2022-11-02T04:11:15.830Z,12.09
2022-11-02T04:14:00.390Z,12.12
2022-11-02T04:16:29.538Z,12.17
2022-11-02T04:19:14.698Z,12.24
2022-11-02T04:22:02.998Z,12.09
2022-11-02T04:24:48.057Z,12.08
2022-11-02T04:27:20.557Z,12.00
2022-11-02T04:29:48.753Z,12.03
2022-11-02T04:32:38.771Z,12.11
2022-11-02T04:35:06.880Z,11.99
2022-11-02T04:37:57.483Z,12.02
2022-11-02T04:40:25.280Z,11.94
2022-11-02T04:42:53.081Z,11.94
2022-11-02T04:45:20.912Z,11.80
2022-11-02T04:47:50.020Z,11.77
2022-11-02T04:50:17.889Z,11.79
2022-11-02T04:52:45.599Z,11.80
2022-11-02T04:55:13.287Z,11.80
2022-11-02T04:57:45.818Z,11.81
2022-11-02T05:00:15.500Z,11.64
2022-11-02T05:02:43.503Z,11.53
2022-11-02T05:05:12.760Z,11.57
2022-11-02T05:07:40.538Z,11.62
2022-11-02T05:10:09.276Z,11.54
2022-11-02T05:12:37.220Z,11.57
2022-11-02T05:15:05.859Z,11.81
2022-11-02T05:17:33.622Z,11.95
2022-11-02T05:20:01.486Z,12.16
2022-11-02T05:22:32.048Z,12.19
2022-11-02T05:24:59.808Z,12.17
2022-11-02T05:27:27.550Z,12.03
2022-11-02T05:29:55.243Z,12.02
2022-11-02T05:32:22.916Z,12.00
2022-11-02T05:34:50.575Z,12.03
2022-11-02T05:37:18.343Z,11.99
2022-11-02T05:39:49.511Z,11.94
2022-11-02T05:42:18.351Z,11.89
2022-11-02T05:44:46.073Z,11.93
2022-11-02T05:47:13.768Z,11.93
2022-11-02T05:49:41.479Z,11.81
2022-11-02T05:52:09.229Z,11.79
2022-11-02T05:54:36.947Z,11.80
2022-11-02T05:57:06.132Z,11.81
2022-11-02T05:59:33.883Z,11.78
2022-11-02T06:02:01.668Z,11.81
2022-11-02T06:04:29.440Z,11.77
2022-11-02T06:06:57.147Z,11.72
2022-11-02T06:09:24.832Z,11.69
2022-11-02T06:11:52.606Z,11.68
2022-11-02T06:14:21.872Z,11.55
2022-11-02T06:16:49.651Z,11.36
2022-11-02T06:19:17.420Z,11.12
2022-11-02T06:21:48.316Z,11.09
2022-11-02T06:24:16.611Z,11.24
2022-11-02T06:26:44.327Z,11.38
2022-11-02T06:29:12.089Z,11.37
2022-11-02T06:31:41.572Z,11.41
2022-11-02T06:34:09.263Z,11.44
2022-11-02T06:36:37.235Z,11.31
2022-11-02T06:39:05.121Z,11.19
2022-11-02T06:41:32.830Z,11.34
2022-11-02T06:44:00.689Z,11.27
2022-11-02T06:46:28.413Z,11.25
2022-11-02T06:48:58.827Z,11.26
2022-11-02T06:51:26.619Z,11.34
2022-11-02T06:53:54.285Z,11.37
2022-11-02T06:56:22.216Z,11.38
2022-11-02T06:58:49.904Z,11.13
2022-11-02T07:01:18.114Z,11.43
2022-11-02T07:03:45.933Z,11.40
2022-11-02T07:06:15.063Z,11.38
2022-11-02T07:08:43.368Z,11.52
2022-11-02T07:11:15.279Z,11.72
2022-11-02T07:13:43.428Z,11.71
2022-11-02T07:16:11.288Z,11.71
2022-11-02T07:18:39.044Z,11.56
2022-11-02T07:21:07.241Z,11.66
2022-11-02T07:23:36.365Z,11.74
2022-11-02T07:26:05.427Z,11.89
2022-11-02T07:28:33.289Z,11.92
2022-11-02T07:31:01.027Z,11.87
2022-11-02T07:33:28.674Z,12.06
2022-11-02T07:35:56.461Z,12.08
2022-11-02T07:38:24.226Z,12.13
2022-11-02T07:40:53.282Z,12.11
2022-11-02T07:43:20.992Z,12.16
2022-11-02T07:45:48.729Z,12.29
2022-11-02T07:48:16.396Z,12.45
2022-11-02T07:50:44.109Z,12.50
2022-11-02T07:53:11.852Z,12.42
2022-11-02T07:55:39.667Z,12.63
2022-11-02T07:58:13.572Z,12.70
2022-11-02T08:00:42.169Z,12.67
2022-11-02T08:03:12.436Z,12.67
2022-11-02T08:05:41.890Z,12.75
2022-11-02T08:08:12.213Z,12.74
2022-11-02T08:10:40.728Z,12.78
2022-11-02T08:13:11.148Z,12.88
2022-11-02T08:15:39.528Z,13.00
2022-11-02T08:18:10.313Z,13.07
2022-11-02T08:20:38.105Z,13.28
2022-11-02T08:23:07.447Z,13.31
2022-11-02T08:25:35.605Z,13.31
2022-11-02T08:28:04.386Z,13.32
2022-11-02T08:30:34.408Z,13.39
2022-11-02T08:33:07.295Z,13.48
2022-11-02T08:35:37.520Z,13.61
2022-11-02T08:38:06.017Z,13.85
2022-11-02T08:40:34.789Z,14.01
2022-11-02T08:43:03.908Z,14.02
2022-11-02T08:46:00.561Z,14.14
2022-11-02T08:48:22.089Z,14.34
2022-11-02T08:50:50.193Z,14.53
2022-11-02T08:53:17.977Z,14.59
2022-11-02T08:55:45.654Z,14.74
2022-11-02T08:58:13.404Z,14.61
2022-11-02T09:00:42.487Z,14.76
2022-11-02T09:03:12.859Z,14.71
2022-11-02T09:05:43.399Z,14.94
2022-11-02T09:08:13.526Z,15.06
2022-11-02T09:10:41.813Z,15.01
2022-11-02T09:13:12.844Z,15.16
2022-11-02T09:15:42.737Z,15.41
2022-11-02T09:18:11.184Z,15.63
2022-11-02T09:20:39.114Z,15.81
2022-11-02T09:23:06.877Z,15.83
2022-11-02T09:25:34.560Z,15.92
2022-11-02T09:28:02.329Z,15.91
2022-11-02T09:30:30.137Z,15.84
2022-11-02T09:33:00.574Z,16.16
2022-11-02T09:35:29.812Z,16.39
2022-11-02T09:37:58.021Z,16.62
2022-11-02T09:40:27.821Z,16.69
2022-11-02T09:43:05.652Z,16.88
2022-11-02T09:45:37.204Z,16.95
2022-11-02T09:48:17.677Z,16.94
2022-11-02T09:50:54.278Z,16.81
2022-11-02T09:53:32.506Z,16.94
2022-11-02T09:56:02.290Z,17.32
2022-11-02T09:58:36.327Z,17.16
2022-11-02T10:01:17.617Z,17.00
2022-11-02T10:04:06.179Z,16.93
2022-11-02T10:06:38.295Z,17.01
2022-11-02T10:09:13.358Z,17.25
2022-11-02T10:11:50.955Z,17.29
2022-11-02T10:14:25.386Z,17.61
2022-11-02T10:16:58.914Z,17.74
2022-11-02T10:19:30.555Z,17.88
2022-11-02T10:21:59.571Z,17.99
2022-11-02T10:24:33.241Z,17.56
2022-11-02T10:27:02.750Z,17.75
2022-11-02T10:29:46.431Z,17.96
2022-11-02T10:32:15.958Z,17.99
2022-11-02T10:34:58.589Z,18.07
2022-11-02T10:37:45.354Z,18.17
2022-11-02T10:40:22.678Z,18.20
2022-11-02T10:43:05.941Z,18.24
2022-11-02T10:45:49.261Z,18.21
2022-11-02T10:48:29.444Z,18.43
2022-11-02T10:51:08.471Z,18.61
2022-11-02T10:53:41.568Z,18.67
2022-11-02T10:56:16.611Z,18.71
2022-11-02T10:58:51.537Z,18.50
2022-11-02T11:01:19.503Z,18.47
2022-11-02T11:03:59.125Z,18.69
2022-11-02T11:06:31.874Z,18.82
2022-11-02T11:09:01.971Z,18.61
2022-11-02T11:11:32.596Z,19.04
2022-11-02T11:16:54.448Z,19.13
2022-11-02T11:19:42.362Z,19.36
2022-11-02T11:22:29.455Z,19.05
2022-11-02T11:25:27.123Z,19.30
2022-11-02T11:27:56.995Z,18.43
2022-11-02T11:30:58.359Z,18.62
2022-11-02T11:33:17.614Z,18.31
2022-11-02T11:35:49.991Z,18.76
2022-11-02T11:38:22.095Z,19.29
2022-11-02T11:40:54.348Z,19.37
2022-11-02T11:43:25.190Z,18.88
2022-11-02T11:46:03.979Z,19.08
2022-11-02T11:48:39.014Z,19.29
2022-11-02T11:51:26.529Z,19.18
2022-11-02T11:54:22.216Z,19.20
2022-11-02T11:56:51.709Z,19.47
2022-11-02T11:59:28.849Z,19.30
2022-11-02T12:02:01.332Z,19.51
2022-11-02T12:04:35.018Z,19.34
2022-11-02T12:07:19.862Z,19.58
2022-11-02T12:09:58.627Z,19.54
2022-11-02T12:12:39.659Z,19.31
2022-11-02T12:15:22.079Z,19.53
2022-11-02T12:18:02.411Z,19.18
2022-11-02T12:20:49.804Z,18.70
2022-11-02T12:23:34.765Z,18.67
2022-11-02T12:26:18.810Z,18.40
2022-11-02T12:28:57.885Z,18.21
2022-11-02T12:31:38.883Z,18.37
2022-11-02T12:34:22.402Z,18.50
2022-11-02T12:37:32.819Z,18.41
2022-11-02T12:39:58.511Z,18.26
2022-11-02T12:42:30.752Z,18.33
2022-11-02T12:45:22.825Z,18.12
2022-11-02T12:47:57.544Z,18.17
2022-11-02T12:50:50.320Z,17.85
2022-11-02T12:53:35.239Z,17.71
2022-11-02T12:56:06.406Z,17.28
2022-11-02T12:58:38.652Z,17.05
2022-11-02T13:01:13.873Z,16.79
2022-11-02T13:03:50.245Z,16.30
2022-11-02T13:06:22.919Z,16.47
2022-11-02T13:08:54.676Z,16.74
2022-11-02T13:11:28.715Z,16.89
2022-11-02T13:14:00.263Z,16.55
2022-11-02T13:16:39.576Z,16.25
2022-11-02T13:19:13.861Z,16.18
2022-11-02T13:21:46.824Z,16.51
2022-11-02T13:24:19.720Z,16.60
2022-11-02T13:26:57.125Z,16.41
2022-11-02T13:29:36.252Z,16.71
2022-11-02T13:32:11.308Z,16.87
2022-11-02T13:34:42.199Z,17.75
2022-11-02T13:37:14.985Z,17.73
2022-11-02T13:39:46.684Z,17.97
2022-11-02T13:42:56.536Z,18.17
2022-11-02T13:45:53.328Z,18.40
2022-11-02T13:48:49.268Z,18.92
2022-11-02T13:51:26.568Z,19.07
2022-11-02T13:54:00.211Z,18.97
2022-11-02T13:56:30.077Z,18.97
2022-11-02T13:59:04.107Z,19.03
2022-11-02T14:01:36.548Z,19.00
2022-11-02T14:04:08.333Z,18.73
2022-11-02T14:06:46.786Z,18.53
2022-11-02T14:09:25.301Z,18.27
2022-11-02T14:11:53.204Z,18.28
2022-11-02T14:14:23.465Z,18.40
2022-11-02T14:17:12.973Z,18.70
2022-11-02T14:20:04.324Z,19.00
2022-11-02T14:22:33.022Z,19.12
2022-11-02T14:25:18.887Z,19.21
2022-11-02T14:27:46.965Z,19.33
2022-11-02T14:30:45.194Z,19.25
2022-11-02T14:33:29.039Z,19.26
2022-11-02T14:36:01.500Z,19.04
2022-11-02T14:38:49.281Z,18.96
2022-11-02T14:41:40.921Z,18.81
2022-11-02T14:44:45.325Z,18.50
2022-11-02T14:47:15.337Z,18.50
2022-11-02T14:49:51.383Z,18.50
2022-11-02T14:52:26.556Z,18.76
2022-11-02T14:55:00.416Z,18.81
2022-11-02T14:57:30.906Z,18.20
2022-11-02T15:00:01.353Z,18.65
2022-11-02T15:02:37.271Z,18.77
2022-11-02T15:05:22.864Z,18.78
2022-11-02T15:07:54.188Z,18.58
2022-11-02T15:10:52.203Z,18.52
2022-11-02T15:13:36.941Z,18.59
2022-11-02T15:16:26.343Z,18.44
2022-11-02T15:18:55.901Z,18.37
2022-11-02T15:21:29.344Z,18.30
2022-11-02T15:24:20.700Z,18.35
2022-11-02T15:26:51.859Z,18.30
2022-11-02T15:29:42.100Z,18.32
2022-11-02T15:32:22.149Z,18.26
2022-11-02T15:34:52.493Z,18.54
2022-11-02T15:37:24.499Z,18.56
2022-11-02T15:39:53.651Z,18.31
2022-11-02T15:42:30.973Z,18.10
2022-11-02T15:45:46.905Z,18.37
2022-11-02T15:48:30.983Z,18.31
2022-11-02T15:51:06.567Z,17.84
2022-11-02T15:54:00.737Z,17.88
2022-11-02T15:56:47.587Z,18.12
2022-11-02T15:59:45.379Z,18.01
2022-11-02T16:02:25.031Z,17.91
2022-11-02T16:04:55.067Z,17.74
2022-11-02T16:07:29.176Z,17.96
2022-11-02T16:10:22.296Z,17.42
2022-11-02T16:12:57.869Z,17.68
2022-11-02T16:15:26.218Z,17.90
2022-11-02T16:17:54.494Z,17.52
2022-11-02T16:20:24.413Z,17.43
2022-11-02T16:22:55.774Z,17.32
2022-11-02T16:25:36.848Z,17.29
2022-11-02T16:28:21.754Z,17.19
2022-11-02T16:31:10.087Z,16.76
2022-11-02T16:33:44.534Z,17.17
2022-11-02T16:36:15.499Z,16.71
2022-11-02T16:38:49.447Z,16.97
2022-11-02T16:41:19.158Z,16.89
2022-11-02T16:43:49.784Z,16.52
2022-11-02T16:46:18.609Z,16.70
2022-11-02T16:49:03.651Z,16.98
2022-11-02T16:51:31.682Z,17.03
2022-11-02T16:54:20.936Z,17.06
2022-11-02T16:56:51.459Z,16.96
2022-11-02T16:59:21.284Z,17.13
2022-11-02T17:01:49.429Z,17.01
2022-11-02T17:04:22.312Z,17.04
2022-11-02T17:06:52.967Z,16.84
2022-11-02T17:09:28.252Z,17.08
2022-11-02T17:11:59.837Z,17.07
2022-11-02T17:14:29.031Z,17.12
2022-11-02T17:17:05.916Z,17.17
2022-11-02T17:19:47.559Z,17.32
2022-11-02T17:22:24.806Z,17.26
2022-11-02T17:25:05.881Z,17.23
2022-11-02T17:27:39.275Z,17.23
2022-11-02T17:30:44.546Z,17.21
2022-11-02T17:33:22.865Z,17.17
2022-11-02T17:35:51.959Z,17.20
2022-11-02T17:38:22.948Z,17.15
2022-11-02T17:40:52.253Z,17.14
2022-11-02T17:43:21.818Z,17.02
2022-11-02T17:45:55.848Z,17.21
2022-11-02T17:48:25.310Z,17.24
2022-11-02T17:50:54.565Z,17.12
2022-11-02T17:53:23.220Z,17.05
2022-11-02T17:55:50.951Z,17.00
2022-11-02T17:58:18.776Z,17.16
2022-11-02T18:00:48.147Z,17.03
2022-11-02T18:03:19.070Z,17.13
2022-11-02T18:05:50.120Z,16.97
2022-11-02T18:08:20.244Z,17.15
2022-11-02T18:10:50.940Z,17.19
2022-11-02T18:13:21.078Z,17.05
2022-11-02T18:15:50.991Z,17.07
2022-11-02T18:18:18.779Z,17.07
2022-11-02T18:20:46.482Z,17.12
2022-11-02T18:23:16.563Z,17.13
2022-11-02T18:25:44.308Z,17.11
2022-11-02T18:28:12.067Z,17.18
2022-11-02T18:30:43.203Z,17.15
2022-11-02T18:33:14.007Z,17.09
2022-11-02T18:35:43.165Z,17.17
2022-11-02T18:38:11.630Z,17.18
2022-11-02T18:40:39.350Z,17.21
2022-11-02T18:43:07.494Z,17.09
2022-11-02T18:45:35.577Z,17.08
2022-11-02T18:48:03.555Z,17.07
2022-11-02T18:50:32.875Z,17.18
2022-11-02T18:53:00.660Z,17.18
2022-11-02T18:55:28.345Z,17.11
2022-11-02T18:57:56.349Z,17.07
2022-11-02T19:00:24.120Z,16.97
2022-11-02T19:02:51.869Z,17.18
2022-11-02T19:05:37.188Z,17.10
2022-11-02T19:08:23.566Z,17.22
2022-11-02T19:10:52.270Z,16.98
2022-11-02T19:13:19.965Z,17.02
2022-11-02T19:15:47.652Z,17.06
2022-11-02T19:18:15.355Z,17.13
2022-11-02T19:20:43.049Z,17.02
2022-11-02T19:23:12.165Z,17.06
2022-11-02T19:25:40.004Z,17.03
2022-11-02T19:28:08.245Z,16.95
2022-11-02T19:30:38.558Z,16.94
2022-11-02T19:33:06.640Z,16.95
2022-11-02T19:35:35.616Z,16.86
2022-11-02T19:38:03.347Z,17.08
2022-11-02T19:40:33.820Z,17.13
2022-11-02T19:43:01.512Z,17.25
2022-11-02T19:45:29.250Z,17.21
2022-11-02T19:47:56.956Z,17.09
2022-11-02T19:50:24.812Z,16.79
2022-11-02T19:52:52.477Z,17.03
2022-11-02T19:55:22.729Z,16.83
2022-11-02T19:57:51.778Z,17.01
2022-11-02T20:00:19.775Z,17.11
2022-11-02T20:02:50.423Z,17.15
2022-11-02T20:05:18.230Z,17.13
2022-11-02T20:07:45.920Z,17.09
2022-11-02T20:10:13.627Z,16.98
2022-11-02T20:12:41.303Z,16.87
2022-11-02T20:15:12.127Z,17.10
2022-11-02T20:17:52.357Z,16.73
2022-11-02T20:20:27.963Z,17.03
2022-11-02T20:22:55.728Z,16.89
2022-11-02T20:25:25.509Z,16.81
2022-11-02T20:27:53.502Z,16.75
2022-11-02T20:30:23.062Z,16.69
2022-11-02T20:32:50.844Z,16.80
2022-11-02T20:35:22.789Z,16.75
2022-11-02T20:37:50.486Z,16.93
2022-11-02T20:40:18.368Z,16.79
2022-11-02T20:42:46.138Z,16.93
2022-11-02T20:45:16.151Z,16.96
2022-11-02T20:47:45.248Z,16.93
2022-11-02T20:50:16.754Z,16.76
2022-11-02T20:52:46.567Z,16.76
2022-11-02T20:55:14.375Z,16.84
2022-11-02T20:57:42.051Z,16.93
2022-11-02T21:00:11.532Z,16.96
2022-11-02T21:02:39.287Z,16.83
2022-11-02T21:05:09.428Z,16.95
2022-11-02T21:07:37.218Z,16.83
2022-11-02T21:10:05.818Z,16.92
2022-11-02T21:12:51.388Z,16.94
2022-11-02T21:15:19.257Z,16.78
2022-11-02T21:17:47.007Z,16.84
2022-11-02T21:23:04.791Z,16.95
2022-11-02T21:25:33.607Z,16.88
2022-11-02T21:28:02.050Z,16.84
2022-11-02T21:30:31.175Z,16.90
2022-11-02T21:32:59.908Z,17.08
2022-11-02T21:35:28.984Z,17.00
2022-11-02T21:38:00.226Z,16.81
2022-11-02T21:40:31.347Z,17.00
2022-11-02T21:42:59.100Z,17.03
2022-11-02T21:45:26.856Z,17.03
2022-11-02T21:47:54.602Z,17.00
2022-11-02T21:50:22.282Z,17.05
2022-11-02T21:52:51.404Z,17.14
2022-11-02T21:55:19.080Z,16.81
2022-11-02T21:57:47.365Z,17.09
2022-11-02T22:00:16.311Z,16.90
2022-11-02T22:02:43.141Z,16.99
2022-11-02T22:05:31.023Z,17.11
2022-11-02T22:08:16.607Z,17.08
2022-11-02T22:10:44.424Z,17.17
2022-11-02T22:13:29.655Z,17.06
2022-11-02T22:15:57.376Z,16.96
2022-11-02T22:18:25.211Z,17.14
2022-11-02T22:20:56.012Z,17.09
2022-11-02T22:23:25.145Z,17.10
2022-11-02T22:25:59.030Z,16.97
2022-11-02T22:28:30.414Z,17.13
2022-11-02T22:30:58.604Z,17.07
2022-11-02T22:33:27.268Z,16.95
2022-11-02T22:35:54.976Z,17.05
2022-11-02T22:38:40.171Z,17.17
2022-11-02T22:41:09.208Z,17.22
2022-11-02T22:43:36.951Z,17.09
2022-11-02T22:46:06.627Z,16.96
2022-11-02T22:48:36.143Z,17.15
2022-11-02T22:51:04.289Z,17.08
2022-11-02T22:53:32.019Z,17.19
2022-11-02T22:56:00.880Z,17.08
2022-11-02T22:58:31.428Z,17.28
2022-11-02T23:00:59.201Z,17.08
2022-11-02T23:03:27.218Z,17.15
2022-11-02T23:05:55.000Z,17.12
2022-11-02T23:08:22.728Z,16.96
2022-11-02T23:11:12.623Z,16.95
2022-11-02T23:13:41.870Z,16.94
2022-11-02T23:16:24.502Z,16.96
2022-11-02T23:19:12.127Z,16.92
2022-11-02T23:21:40.905Z,16.72
2022-11-02T23:24:27.327Z,17.03
2022-11-02T23:26:56.028Z,16.97
2022-11-02T23:29:43.013Z,16.78
2022-11-02T23:32:27.391Z,17.05
2022-11-02T23:35:14.396Z,16.97
2022-11-02T23:37:42.773Z,17.08
2022-11-02T23:40:12.006Z,16.82
2022-11-02T23:42:39.744Z,17.08
2022-11-02T23:45:10.891Z,16.95
2022-11-02T23:47:56.675Z,16.86
2022-11-02T23:50:43.488Z,16.95
2022-11-02T23:53:29.746Z,16.95
2022-11-02T23:56:15.660Z,16.91
2022-11-02T23:58:43.468Z,16.85
